sensor_id;sensor_type;location;lat;lon;timestamp;temperature;humidity
12688;DHT22;6408;59.388;17.798;2023-05-07T00:00:28;2.60;99.90
12688;DHT22;6408;59.388;17.798;2023-05-07T00:02:55;2.60;99.90
12688;DHT22;6408;59.388;17.798;2023-05-07T00:05:23;2.50;99.90
12688;DHT22;6408;59.388;17.798;2023-05-07T00:07:50;2.50;99.90
12688;DHT22;6408;59.388;17.798;2023-05-07T00:10:18;2.50;99.90
12688;DHT22;6408;59.388;17.798;2023-05-07T00:12:46;2.40;99.90
12688;DHT22;6408;59.388;17.798;2023-05-07T00:15:13;2.40;99.90
12688;DHT22;6408;59.388;17.798;2023-05-07T00:17:42;2.40;99.90
12688;DHT22;6408;59.388;17.798;2023-05-07T00:20:10;2.40;99.90
12688;DHT22;6408;59.388;17.798;2023-05-07T00:22:38;2.40;99.90
12688;DHT22;6408;59.388;17.798;2023-05-07T00:25:06;2.30;99.90
12688;DHT22;6408;59.388;17.798;2023-05-07T00:27:33;2.30;99.90
12688;DHT22;6408;59.388;17.798;2023-05-07T00:30:01;2.30;99.90
12688;DHT22;6408;59.388;17.798;2023-05-07T00:32:29;2.30;99.90
12688;DHT22;6408;59.388;17.798;2023-05-07T00:34:57;2.20;99.90
12688;DHT22;6408;59.388;17.798;2023-05-07T00:37:25;2.20;99.90
12688;DHT22;6408;59.388;17.798;2023-05-07T00:39:52;2.30;99.90
12688;DHT22;6408;59.388;17.798;2023-05-07T00:42:19;2.30;99.90
12688;DHT22;6408;59.388;17.798;2023-05-07T00:44:46;2.20;99.90
12688;DHT22;6408;59.388;17.798;2023-05-07T00:47:14;2.20;99.90
12688;DHT22;6408;59.388;17.798;2023-05-07T00:49:43;2.20;99.90
12688;DHT22;6408;59.388;17.798;2023-05-07T00:52:16;2.20;99.90
12688;DHT22;6408;59.388;17.798;2023-05-07T00:54:43;2.20;99.90
12688;DHT22;6408;59.388;17.798;2023-05-07T00:57:11;2.20;99.90
12688;DHT22;6408;59.388;17.798;2023-05-07T00:59:39;2.10;99.90
12688;DHT22;6408;59.388;17.798;2023-05-07T01:02:06;2.00;99.90
12688;DHT22;6408;59.388;17.798;2023-05-07T01:04:34;2.00;99.90
12688;DHT22;6408;59.388;17.798;2023-05-07T01:07:02;1.90;99.90
12688;DHT22;6408;59.388;17.798;2023-05-07T01:09:32;1.90;99.90
12688;DHT22;6408;59.388;17.798;2023-05-07T01:12:01;1.90;99.90
12688;DHT22;6408;59.388;17.798;2023-05-07T01:14:28;1.80;99.90
12688;DHT22;6408;59.388;17.798;2023-05-07T01:16:56;1.80;99.90
12688;DHT22;6408;59.388;17.798;2023-05-07T01:19:24;1.80;99.90
12688;DHT22;6408;59.388;17.798;2023-05-07T01:21:59;1.80;99.90
12688;DHT22;6408;59.388;17.798;2023-05-07T01:24:30;1.80;99.90
12688;DHT22;6408;59.388;17.798;2023-05-07T01:26:58;1.80;99.90
12688;DHT22;6408;59.388;17.798;2023-05-07T01:29:27;1.80;99.90
12688;DHT22;6408;59.388;17.798;2023-05-07T01:31:56;1.80;99.90
12688;DHT22;6408;59.388;17.798;2023-05-07T01:34:25;1.80;99.90
12688;DHT22;6408;59.388;17.798;2023-05-07T01:36:53;1.80;99.90
12688;DHT22;6408;59.388;17.798;2023-05-07T01:39:21;1.80;99.90
12688;DHT22;6408;59.388;17.798;2023-05-07T01:41:51;1.70;99.90
12688;DHT22;6408;59.388;17.798;2023-05-07T01:44:19;1.70;99.90
12688;DHT22;6408;59.388;17.798;2023-05-07T01:46:46;1.70;99.90
12688;DHT22;6408;59.388;17.798;2023-05-07T01:49:15;1.80;99.90
12688;DHT22;6408;59.388;17.798;2023-05-07T01:51:43;1.80;99.90
12688;DHT22;6408;59.388;17.798;2023-05-07T01:54:10;1.80;99.90
12688;DHT22;6408;59.388;17.798;2023-05-07T01:56:37;1.70;99.90
12688;DHT22;6408;59.388;17.798;2023-05-07T01:59:06;1.70;99.90
12688;DHT22;6408;59.388;17.798;2023-05-07T02:01:34;1.60;99.90
12688;DHT22;6408;59.388;17.798;2023-05-07T02:04:01;1.50;99.90
12688;DHT22;6408;59.388;17.798;2023-05-07T02:06:28;1.50;99.90
12688;DHT22;6408;59.388;17.798;2023-05-07T02:08:56;1.50;99.90
12688;DHT22;6408;59.388;17.798;2023-05-07T02:11:23;1.50;99.90
12688;DHT22;6408;59.388;17.798;2023-05-07T02:13:51;1.50;99.90
12688;DHT22;6408;59.388;17.798;2023-05-07T02:16:20;1.50;99.90
12688;DHT22;6408;59.388;17.798;2023-05-07T02:18:48;1.40;99.90
12688;DHT22;6408;59.388;17.798;2023-05-07T02:21:15;1.40;99.90
12688;DHT22;6408;59.388;17.798;2023-05-07T02:23:43;1.40;99.90
12688;DHT22;6408;59.388;17.798;2023-05-07T02:26:11;1.40;99.90
12688;DHT22;6408;59.388;17.798;2023-05-07T02:28:38;1.50;99.90
12688;DHT22;6408;59.388;17.798;2023-05-07T02:31:06;1.40;99.90
12688;DHT22;6408;59.388;17.798;2023-05-07T02:33:34;1.50;99.90
12688;DHT22;6408;59.388;17.798;2023-05-07T02:36:08;1.60;99.90
12688;DHT22;6408;59.388;17.798;2023-05-07T02:38:36;1.60;99.90
12688;DHT22;6408;59.388;17.798;2023-05-07T02:41:04;1.70;99.90
12688;DHT22;6408;59.388;17.798;2023-05-07T02:43:32;1.60;99.90
12688;DHT22;6408;59.388;17.798;2023-05-07T02:46:03;1.70;99.90
12688;DHT22;6408;59.388;17.798;2023-05-07T02:48:32;1.70;99.90
12688;DHT22;6408;59.388;17.798;2023-05-07T02:51:02;1.70;99.90
12688;DHT22;6408;59.388;17.798;2023-05-07T02:53:29;1.60;99.90
12688;DHT22;6408;59.388;17.798;2023-05-07T02:55:58;1.60;99.90
12688;DHT22;6408;59.388;17.798;2023-05-07T02:58:26;1.60;99.90
12688;DHT22;6408;59.388;17.798;2023-05-07T03:00:53;1.60;99.90
12688;DHT22;6408;59.388;17.798;2023-05-07T03:03:21;1.50;99.90
12688;DHT22;6408;59.388;17.798;2023-05-07T03:05:48;1.60;99.90
12688;DHT22;6408;59.388;17.798;2023-05-07T03:08:17;1.50;99.90
12688;DHT22;6408;59.388;17.798;2023-05-07T03:10:44;1.60;99.90
12688;DHT22;6408;59.388;17.798;2023-05-07T03:13:11;1.60;99.90
12688;DHT22;6408;59.388;17.798;2023-05-07T03:15:39;1.60;99.90
12688;DHT22;6408;59.388;17.798;2023-05-07T03:18:06;1.60;99.90
12688;DHT22;6408;59.388;17.798;2023-05-07T03:20:33;1.60;99.90
12688;DHT22;6408;59.388;17.798;2023-05-07T03:23:01;1.70;99.90
12688;DHT22;6408;59.388;17.798;2023-05-07T03:25:31;1.70;99.90
12688;DHT22;6408;59.388;17.798;2023-05-07T03:27:58;1.70;99.90
12688;DHT22;6408;59.388;17.798;2023-05-07T03:30:25;1.80;99.90
12688;DHT22;6408;59.388;17.798;2023-05-07T03:32:53;1.90;99.90
12688;DHT22;6408;59.388;17.798;2023-05-07T03:35:20;2.00;99.90
12688;DHT22;6408;59.388;17.798;2023-05-07T03:37:47;2.10;99.90
12688;DHT22;6408;59.388;17.798;2023-05-07T03:40:16;2.30;99.90
12688;DHT22;6408;59.388;17.798;2023-05-07T03:42:45;2.50;99.90
12688;DHT22;6408;59.388;17.798;2023-05-07T03:45:12;2.70;99.90
12688;DHT22;6408;59.388;17.798;2023-05-07T03:47:39;2.80;99.90
12688;DHT22;6408;59.388;17.798;2023-05-07T03:50:07;3.00;99.90
12688;DHT22;6408;59.388;17.798;2023-05-07T03:52:34;3.20;99.90
12688;DHT22;6408;59.388;17.798;2023-05-07T03:55:02;3.30;99.90
12688;DHT22;6408;59.388;17.798;2023-05-07T03:57:30;3.40;99.90
12688;DHT22;6408;59.388;17.798;2023-05-07T03:59:59;3.60;99.90
12688;DHT22;6408;59.388;17.798;2023-05-07T04:02:26;3.70;99.90
12688;DHT22;6408;59.388;17.798;2023-05-07T04:04:53;3.90;99.90
12688;DHT22;6408;59.388;17.798;2023-05-07T04:07:21;4.10;99.90
12688;DHT22;6408;59.388;17.798;2023-05-07T04:09:48;4.20;99.90
12688;DHT22;6408;59.388;17.798;2023-05-07T04:12:15;4.30;99.90
12688;DHT22;6408;59.388;17.798;2023-05-07T04:14:43;4.40;99.90
12688;DHT22;6408;59.388;17.798;2023-05-07T04:17:12;4.50;99.90
12688;DHT22;6408;59.388;17.798;2023-05-07T04:19:40;4.60;99.90
12688;DHT22;6408;59.388;17.798;2023-05-07T04:22:10;4.70;99.90
12688;DHT22;6408;59.388;17.798;2023-05-07T04:24:38;4.90;99.90
12688;DHT22;6408;59.388;17.798;2023-05-07T04:27:05;5.00;99.90
12688;DHT22;6408;59.388;17.798;2023-05-07T04:29:33;5.00;99.90
12688;DHT22;6408;59.388;17.798;2023-05-07T04:32:00;5.10;99.90
12688;DHT22;6408;59.388;17.798;2023-05-07T04:34:29;5.20;99.90
12688;DHT22;6408;59.388;17.798;2023-05-07T04:36:59;5.40;99.90
12688;DHT22;6408;59.388;17.798;2023-05-07T04:39:26;5.50;99.90
12688;DHT22;6408;59.388;17.798;2023-05-07T04:41:53;5.70;99.90
12688;DHT22;6408;59.388;17.798;2023-05-07T04:44:20;5.80;99.90
12688;DHT22;6408;59.388;17.798;2023-05-07T04:46:48;5.90;99.90
12688;DHT22;6408;59.388;17.798;2023-05-07T04:49:15;6.10;99.90
12688;DHT22;6408;59.388;17.798;2023-05-07T04:51:43;6.30;99.90
12688;DHT22;6408;59.388;17.798;2023-05-07T04:54:11;6.40;99.90
12688;DHT22;6408;59.388;17.798;2023-05-07T04:56:38;6.60;99.90
12688;DHT22;6408;59.388;17.798;2023-05-07T04:59:06;6.80;99.90
12688;DHT22;6408;59.388;17.798;2023-05-07T05:01:33;7.20;99.90
12688;DHT22;6408;59.388;17.798;2023-05-07T05:04:00;7.40;99.90
12688;DHT22;6408;59.388;17.798;2023-05-07T05:06:27;7.60;99.90
12688;DHT22;6408;59.388;17.798;2023-05-07T05:08:56;7.60;99.90
12688;DHT22;6408;59.388;17.798;2023-05-07T05:11:23;7.70;99.90
12688;DHT22;6408;59.388;17.798;2023-05-07T05:13:50;7.80;99.90
12688;DHT22;6408;59.388;17.798;2023-05-07T05:16:18;8.00;99.90
12688;DHT22;6408;59.388;17.798;2023-05-07T05:18:46;8.10;99.90
12688;DHT22;6408;59.388;17.798;2023-05-07T05:21:15;8.20;99.90
12688;DHT22;6408;59.388;17.798;2023-05-07T05:23:42;8.20;99.90
12688;DHT22;6408;59.388;17.798;2023-05-07T05:26:11;8.20;99.90
12688;DHT22;6408;59.388;17.798;2023-05-07T05:28:39;8.20;99.90
12688;DHT22;6408;59.388;17.798;2023-05-07T05:31:06;8.30;99.90
12688;DHT22;6408;59.388;17.798;2023-05-07T05:33:33;8.30;99.90
12688;DHT22;6408;59.388;17.798;2023-05-07T05:36:01;8.40;99.90
12688;DHT22;6408;59.388;17.798;2023-05-07T05:38:28;8.40;99.90
12688;DHT22;6408;59.388;17.798;2023-05-07T05:40:56;8.40;99.90
12688;DHT22;6408;59.388;17.798;2023-05-07T05:43:25;8.60;99.90
12688;DHT22;6408;59.388;17.798;2023-05-07T05:45:52;8.80;99.90
12688;DHT22;6408;59.388;17.798;2023-05-07T05:48:19;8.90;99.90
12688;DHT22;6408;59.388;17.798;2023-05-07T05:50:46;8.90;99.90
12688;DHT22;6408;59.388;17.798;2023-05-07T05:53:14;9.00;99.90
12688;DHT22;6408;59.388;17.798;2023-05-07T05:55:42;9.00;99.90
12688;DHT22;6408;59.388;17.798;2023-05-07T05:58:09;9.20;99.90
12688;DHT22;6408;59.388;17.798;2023-05-07T06:00:39;9.20;99.90
12688;DHT22;6408;59.388;17.798;2023-05-07T06:03:06;9.30;99.90
12688;DHT22;6408;59.388;17.798;2023-05-07T06:05:33;9.30;99.90
12688;DHT22;6408;59.388;17.798;2023-05-07T06:08:01;9.30;99.90
12688;DHT22;6408;59.388;17.798;2023-05-07T06:10:28;9.40;99.90
12688;DHT22;6408;59.388;17.798;2023-05-07T06:12:56;9.50;99.90
12688;DHT22;6408;59.388;17.798;2023-05-07T06:15:24;9.60;99.90
12688;DHT22;6408;59.388;17.798;2023-05-07T06:17:53;9.70;99.90
12688;DHT22;6408;59.388;17.798;2023-05-07T06:20:21;9.80;99.90
12688;DHT22;6408;59.388;17.798;2023-05-07T06:22:48;9.90;99.90
12688;DHT22;6408;59.388;17.798;2023-05-07T06:25:16;9.90;99.90
12688;DHT22;6408;59.388;17.798;2023-05-07T06:27:43;9.90;99.90
12688;DHT22;6408;59.388;17.798;2023-05-07T06:30:11;10.00;99.90
12688;DHT22;6408;59.388;17.798;2023-05-07T06:32:40;10.00;99.90
12688;DHT22;6408;59.388;17.798;2023-05-07T06:35:10;10.00;99.90
12688;DHT22;6408;59.388;17.798;2023-05-07T06:37:38;10.20;99.90
12688;DHT22;6408;59.388;17.798;2023-05-07T06:40:09;10.20;99.90
12688;DHT22;6408;59.388;17.798;2023-05-07T06:42:37;10.30;99.90
12688;DHT22;6408;59.388;17.798;2023-05-07T06:45:05;10.40;99.90
12688;DHT22;6408;59.388;17.798;2023-05-07T06:47:32;10.50;99.90
12688;DHT22;6408;59.388;17.798;2023-05-07T06:49:59;10.60;99.90
12688;DHT22;6408;59.388;17.798;2023-05-07T06:52:28;10.80;99.90
12688;DHT22;6408;59.388;17.798;2023-05-07T06:54:56;10.90;99.90
12688;DHT22;6408;59.388;17.798;2023-05-07T06:57:24;11.10;99.90
12688;DHT22;6408;59.388;17.798;2023-05-07T06:59:52;11.00;99.90
12688;DHT22;6408;59.388;17.798;2023-05-07T07:02:19;11.10;99.90
12688;DHT22;6408;59.388;17.798;2023-05-07T07:04:46;11.10;99.90
12688;DHT22;6408;59.388;17.798;2023-05-07T07:07:14;11.10;99.90
12688;DHT22;6408;59.388;17.798;2023-05-07T07:09:43;11.30;99.90
12688;DHT22;6408;59.388;17.798;2023-05-07T07:12:11;11.40;99.90
12688;DHT22;6408;59.388;17.798;2023-05-07T07:14:38;11.60;99.90
12688;DHT22;6408;59.388;17.798;2023-05-07T07:17:05;11.70;99.90
12688;DHT22;6408;59.388;17.798;2023-05-07T07:19:32;11.70;99.90
12688;DHT22;6408;59.388;17.798;2023-05-07T07:21:59;11.70;99.90
12688;DHT22;6408;59.388;17.798;2023-05-07T07:24:27;11.80;99.90
12688;DHT22;6408;59.388;17.798;2023-05-07T07:26:56;11.80;99.90
12688;DHT22;6408;59.388;17.798;2023-05-07T07:29:24;11.90;99.90
12688;DHT22;6408;59.388;17.798;2023-05-07T07:31:52;11.80;99.90
12688;DHT22;6408;59.388;17.798;2023-05-07T07:34:19;11.90;99.90
12688;DHT22;6408;59.388;17.798;2023-05-07T07:36:48;11.90;99.90
12688;DHT22;6408;59.388;17.798;2023-05-07T07:39:15;12.10;99.90
12688;DHT22;6408;59.388;17.798;2023-05-07T07:41:43;12.10;99.90
12688;DHT22;6408;59.388;17.798;2023-05-07T07:44:11;12.00;99.90
12688;DHT22;6408;59.388;17.798;2023-05-07T07:46:39;12.00;99.90
12688;DHT22;6408;59.388;17.798;2023-05-07T07:49:06;12.20;99.90
12688;DHT22;6408;59.388;17.798;2023-05-07T07:51:34;12.30;99.90
12688;DHT22;6408;59.388;17.798;2023-05-07T07:54:01;12.30;99.90
12688;DHT22;6408;59.388;17.798;2023-05-07T07:56:29;12.60;99.90
12688;DHT22;6408;59.388;17.798;2023-05-07T07:58:56;12.70;99.90
12688;DHT22;6408;59.388;17.798;2023-05-07T08:01:26;12.70;99.90
12688;DHT22;6408;59.388;17.798;2023-05-07T08:03:53;12.80;99.90
12688;DHT22;6408;59.388;17.798;2023-05-07T08:06:21;12.90;99.90
12688;DHT22;6408;59.388;17.798;2023-05-07T08:08:48;12.80;99.90
12688;DHT22;6408;59.388;17.798;2023-05-07T08:11:16;12.90;99.90
12688;DHT22;6408;59.388;17.798;2023-05-07T08:13:43;13.10;99.90
12688;DHT22;6408;59.388;17.798;2023-05-07T08:16:11;13.10;99.90
12688;DHT22;6408;59.388;17.798;2023-05-07T08:18:40;13.20;99.90
12688;DHT22;6408;59.388;17.798;2023-05-07T08:21:07;13.30;99.90
12688;DHT22;6408;59.388;17.798;2023-05-07T08:23:35;13.30;99.90
12688;DHT22;6408;59.388;17.798;2023-05-07T08:26:02;13.30;99.90
12688;DHT22;6408;59.388;17.798;2023-05-07T08:28:29;13.40;99.90
12688;DHT22;6408;59.388;17.798;2023-05-07T08:30:56;13.50;99.90
12688;DHT22;6408;59.388;17.798;2023-05-07T08:33:26;13.50;99.90
12688;DHT22;6408;59.388;17.798;2023-05-07T08:35:55;13.60;99.90
12688;DHT22;6408;59.388;17.798;2023-05-07T08:38:22;13.50;99.90
12688;DHT22;6408;59.388;17.798;2023-05-07T08:40:49;13.40;99.90
12688;DHT22;6408;59.388;17.798;2023-05-07T08:43:17;13.30;99.90
12688;DHT22;6408;59.388;17.798;2023-05-07T08:45:46;13.50;99.90
12688;DHT22;6408;59.388;17.798;2023-05-07T08:48:16;13.60;99.90
12688;DHT22;6408;59.388;17.798;2023-05-07T08:50:43;13.50;99.90
12688;DHT22;6408;59.388;17.798;2023-05-07T08:53:19;13.70;99.90
12688;DHT22;6408;59.388;17.798;2023-05-07T08:55:48;13.90;99.90
12688;DHT22;6408;59.388;17.798;2023-05-07T08:58:15;14.00;99.90
12688;DHT22;6408;59.388;17.798;2023-05-07T09:00:42;14.10;99.90
12688;DHT22;6408;59.388;17.798;2023-05-07T09:03:10;14.10;99.90
12688;DHT22;6408;59.388;17.798;2023-05-07T09:05:39;14.10;99.90
12688;DHT22;6408;59.388;17.798;2023-05-07T09:08:09;14.10;99.90
12688;DHT22;6408;59.388;17.798;2023-05-07T09:10:38;14.00;99.90
12688;DHT22;6408;59.388;17.798;2023-05-07T09:13:06;13.90;99.90
12688;DHT22;6408;59.388;17.798;2023-05-07T09:15:34;14.10;99.90
12688;DHT22;6408;59.388;17.798;2023-05-07T09:18:02;14.20;99.90
12688;DHT22;6408;59.388;17.798;2023-05-07T09:20:30;14.40;99.90
12688;DHT22;6408;59.388;17.798;2023-05-07T09:22:58;14.50;99.90
12688;DHT22;6408;59.388;17.798;2023-05-07T09:25:29;14.70;99.90
12688;DHT22;6408;59.388;17.798;2023-05-07T09:27:59;14.80;99.90
12688;DHT22;6408;59.388;17.798;2023-05-07T09:30:28;14.90;99.90
12688;DHT22;6408;59.388;17.798;2023-05-07T09:32:55;14.90;99.90
12688;DHT22;6408;59.388;17.798;2023-05-07T09:35:23;14.70;99.90
12688;DHT22;6408;59.388;17.798;2023-05-07T09:37:53;14.70;99.90
12688;DHT22;6408;59.388;17.798;2023-05-07T09:40:21;14.70;99.90
12688;DHT22;6408;59.388;17.798;2023-05-07T09:42:49;14.80;99.90
12688;DHT22;6408;59.388;17.798;2023-05-07T09:45:24;14.70;99.90
12688;DHT22;6408;59.388;17.798;2023-05-07T09:47:54;14.90;99.90
12688;DHT22;6408;59.388;17.798;2023-05-07T09:50:26;15.00;99.90
12688;DHT22;6408;59.388;17.798;2023-05-07T09:52:56;15.10;99.90
12688;DHT22;6408;59.388;17.798;2023-05-07T09:55:24;15.10;99.90
12688;DHT22;6408;59.388;17.798;2023-05-07T09:57:53;15.10;99.90
12688;DHT22;6408;59.388;17.798;2023-05-07T10:00:23;15.00;99.90
12688;DHT22;6408;59.388;17.798;2023-05-07T10:02:52;15.00;99.90
12688;DHT22;6408;59.388;17.798;2023-05-07T10:05:20;15.30;99.90
12688;DHT22;6408;59.388;17.798;2023-05-07T10:07:49;15.30;99.90
12688;DHT22;6408;59.388;17.798;2023-05-07T10:10:17;15.30;99.80
12688;DHT22;6408;59.388;17.798;2023-05-07T10:12:45;15.50;99.80
12688;DHT22;6408;59.388;17.798;2023-05-07T10:15:13;15.60;99.10
12688;DHT22;6408;59.388;17.798;2023-05-07T10:17:43;15.80;99.70
12688;DHT22;6408;59.388;17.798;2023-05-07T10:20:11;15.90;99.50
12688;DHT22;6408;59.388;17.798;2023-05-07T10:22:43;15.90;98.90
12688;DHT22;6408;59.388;17.798;2023-05-07T10:25:16;15.60;97.20
12688;DHT22;6408;59.388;17.798;2023-05-07T10:27:46;15.40;97.20
12688;DHT22;6408;59.388;17.798;2023-05-07T10:30:21;15.60;98.60
12688;DHT22;6408;59.388;17.798;2023-05-07T10:32:56;15.80;98.60
12688;DHT22;6408;59.388;17.798;2023-05-07T10:35:32;15.90;98.50
12688;DHT22;6408;59.388;17.798;2023-05-07T10:38:03;16.10;98.40
12688;DHT22;6408;59.388;17.798;2023-05-07T10:40:31;16.10;98.50
12688;DHT22;6408;59.388;17.798;2023-05-07T10:42:59;16.10;98.70
12688;DHT22;6408;59.388;17.798;2023-05-07T10:45:28;16.20;98.90
12688;DHT22;6408;59.388;17.798;2023-05-07T10:48:09;16.20;98.00
12688;DHT22;6408;59.388;17.798;2023-05-07T10:50:37;16.20;97.60
12688;DHT22;6408;59.388;17.798;2023-05-07T10:53:24;16.40;98.40
12688;DHT22;6408;59.388;17.798;2023-05-07T10:59:35;16.30;97.00
12688;DHT22;6408;59.388;17.798;2023-05-07T11:02:07;16.30;96.90
12688;DHT22;6408;59.388;17.798;2023-05-07T11:04:38;16.30;97.10
12688;DHT22;6408;59.388;17.798;2023-05-07T11:07:28;16.30;97.40
12688;DHT22;6408;59.388;17.798;2023-05-07T11:10:04;16.50;96.80
12688;DHT22;6408;59.388;17.798;2023-05-07T11:12:54;16.40;96.00
12688;DHT22;6408;59.388;17.798;2023-05-07T11:15:35;16.20;96.20
12688;DHT22;6408;59.388;17.798;2023-05-07T11:18:03;16.30;97.10
12688;DHT22;6408;59.388;17.798;2023-05-07T11:20:55;16.50;96.10
12688;DHT22;6408;59.388;17.798;2023-05-07T11:23:54;16.60;95.50
12688;DHT22;6408;59.388;17.798;2023-05-07T11:26:22;16.60;94.80
12688;DHT22;6408;59.388;17.798;2023-05-07T11:28:49;16.70;94.60
12688;DHT22;6408;59.388;17.798;2023-05-07T11:31:21;16.80;93.80
12688;DHT22;6408;59.388;17.798;2023-05-07T11:33:50;16.70;93.40
12688;DHT22;6408;59.388;17.798;2023-05-07T11:36:19;16.80;94.40
12688;DHT22;6408;59.388;17.798;2023-05-07T11:38:47;16.70;94.00
12688;DHT22;6408;59.388;17.798;2023-05-07T11:41:16;16.70;93.80
12688;DHT22;6408;59.388;17.798;2023-05-07T11:43:58;16.70;94.00
12688;DHT22;6408;59.388;17.798;2023-05-07T11:46:27;16.80;93.60
12688;DHT22;6408;59.388;17.798;2023-05-07T11:48:55;17.00;93.10
12688;DHT22;6408;59.388;17.798;2023-05-07T11:51:25;16.90;93.10
12688;DHT22;6408;59.388;17.798;2023-05-07T11:53:53;17.00;92.10
12688;DHT22;6408;59.388;17.798;2023-05-07T11:56:21;17.10;92.70
12688;DHT22;6408;59.388;17.798;2023-05-07T11:58:49;17.00;93.60
12688;DHT22;6408;59.388;17.798;2023-05-07T12:01:17;17.20;94.60
12688;DHT22;6408;59.388;17.798;2023-05-07T12:03:45;17.30;93.70
12688;DHT22;6408;59.388;17.798;2023-05-07T12:06:15;17.30;93.30
12688;DHT22;6408;59.388;17.798;2023-05-07T12:08:46;17.10;93.40
12688;DHT22;6408;59.388;17.798;2023-05-07T12:11:16;17.00;94.50
12688;DHT22;6408;59.388;17.798;2023-05-07T12:13:44;17.00;95.10
12688;DHT22;6408;59.388;17.798;2023-05-07T12:16:12;16.80;93.50
12688;DHT22;6408;59.388;17.798;2023-05-07T12:18:40;16.60;94.20
12688;DHT22;6408;59.388;17.798;2023-05-07T12:21:09;16.60;94.00
12688;DHT22;6408;59.388;17.798;2023-05-07T12:23:37;16.80;93.10
12688;DHT22;6408;59.388;17.798;2023-05-07T12:26:08;16.80;94.20
12688;DHT22;6408;59.388;17.798;2023-05-07T12:28:37;16.90;94.30
12688;DHT22;6408;59.388;17.798;2023-05-07T12:31:06;17.00;94.60
12688;DHT22;6408;59.388;17.798;2023-05-07T12:33:35;17.00;94.70
12688;DHT22;6408;59.388;17.798;2023-05-07T12:36:07;17.20;94.90
12688;DHT22;6408;59.388;17.798;2023-05-07T12:38:36;17.10;93.80
12688;DHT22;6408;59.388;17.798;2023-05-07T12:41:06;17.20;94.10
12688;DHT22;6408;59.388;17.798;2023-05-07T12:43:34;17.30;95.10
12688;DHT22;6408;59.388;17.798;2023-05-07T12:46:04;17.40;95.60
12688;DHT22;6408;59.388;17.798;2023-05-07T12:48:32;17.30;95.30
12688;DHT22;6408;59.388;17.798;2023-05-07T12:51:00;17.30;94.90
12688;DHT22;6408;59.388;17.798;2023-05-07T12:53:29;17.20;94.70
12688;DHT22;6408;59.388;17.798;2023-05-07T12:55:58;17.00;95.10
12688;DHT22;6408;59.388;17.798;2023-05-07T12:58:30;17.00;95.20
12688;DHT22;6408;59.388;17.798;2023-05-07T13:01:00;17.00;95.80
12688;DHT22;6408;59.388;17.798;2023-05-07T13:03:29;17.10;95.40
12688;DHT22;6408;59.388;17.798;2023-05-07T13:05:57;16.90;94.40
12688;DHT22;6408;59.388;17.798;2023-05-07T13:08:26;16.80;95.80
12688;DHT22;6408;59.388;17.798;2023-05-07T13:10:54;16.90;95.30
12688;DHT22;6408;59.388;17.798;2023-05-07T13:13:22;16.70;95.90
12688;DHT22;6408;59.388;17.798;2023-05-07T13:15:51;16.90;97.10
12688;DHT22;6408;59.388;17.798;2023-05-07T13:18:23;16.90;97.80
12688;DHT22;6408;59.388;17.798;2023-05-07T13:20:51;17.00;97.20
12688;DHT22;6408;59.388;17.798;2023-05-07T13:23:18;17.00;97.10
12688;DHT22;6408;59.388;17.798;2023-05-07T13:25:46;17.10;96.60
12688;DHT22;6408;59.388;17.798;2023-05-07T13:28:14;16.70;95.90
12688;DHT22;6408;59.388;17.798;2023-05-07T13:30:41;16.80;96.30
12688;DHT22;6408;59.388;17.798;2023-05-07T13:33:10;16.80;96.00
12688;DHT22;6408;59.388;17.798;2023-05-07T13:35:38;16.70;96.00
12688;DHT22;6408;59.388;17.798;2023-05-07T13:38:05;16.80;96.00
12688;DHT22;6408;59.388;17.798;2023-05-07T13:40:33;16.60;95.30
12688;DHT22;6408;59.388;17.798;2023-05-07T13:43:00;16.50;95.80
12688;DHT22;6408;59.388;17.798;2023-05-07T13:45:28;16.50;95.50
12688;DHT22;6408;59.388;17.798;2023-05-07T13:47:56;16.40;95.90
12688;DHT22;6408;59.388;17.798;2023-05-07T13:50:26;16.30;95.70
12688;DHT22;6408;59.388;17.798;2023-05-07T13:52:55;16.30;96.30
12688;DHT22;6408;59.388;17.798;2023-05-07T13:55:24;16.20;95.00
12688;DHT22;6408;59.388;17.798;2023-05-07T13:57:55;16.10;95.60
12688;DHT22;6408;59.388;17.798;2023-05-07T14:00:24;16.20;95.80
12688;DHT22;6408;59.388;17.798;2023-05-07T14:02:52;16.10;95.80
12688;DHT22;6408;59.388;17.798;2023-05-07T14:05:19;16.10;96.20
12688;DHT22;6408;59.388;17.798;2023-05-07T14:07:51;16.10;95.70
12688;DHT22;6408;59.388;17.798;2023-05-07T14:10:18;16.10;95.70
12688;DHT22;6408;59.388;17.798;2023-05-07T14:12:46;16.10;95.40
12688;DHT22;6408;59.388;17.798;2023-05-07T14:15:14;16.30;95.60
12688;DHT22;6408;59.388;17.798;2023-05-07T14:17:42;16.40;95.30
12688;DHT22;6408;59.388;17.798;2023-05-07T14:20:10;16.40;96.00
12688;DHT22;6408;59.388;17.798;2023-05-07T14:22:37;16.40;95.50
12688;DHT22;6408;59.388;17.798;2023-05-07T14:25:08;16.20;96.20
12688;DHT22;6408;59.388;17.798;2023-05-07T14:27:36;16.30;96.60
12688;DHT22;6408;59.388;17.798;2023-05-07T14:30:05;16.20;95.90
12688;DHT22;6408;59.388;17.798;2023-05-07T14:32:33;16.20;95.90
12688;DHT22;6408;59.388;17.798;2023-05-07T14:35:00;16.00;95.30
12688;DHT22;6408;59.388;17.798;2023-05-07T14:37:28;16.00;95.60
12688;DHT22;6408;59.388;17.798;2023-05-07T14:39:55;15.90;95.50
12688;DHT22;6408;59.388;17.798;2023-05-07T14:42:25;16.00;95.20
12688;DHT22;6408;59.388;17.798;2023-05-07T14:44:53;16.10;95.30
12688;DHT22;6408;59.388;17.798;2023-05-07T14:47:20;15.90;95.10
12688;DHT22;6408;59.388;17.798;2023-05-07T14:49:47;15.80;95.50
12688;DHT22;6408;59.388;17.798;2023-05-07T14:52:15;15.80;96.40
12688;DHT22;6408;59.388;17.798;2023-05-07T14:54:42;15.60;96.70
12688;DHT22;6408;59.388;17.798;2023-05-07T14:57:10;15.50;95.30
12688;DHT22;6408;59.388;17.798;2023-05-07T14:59:40;15.50;95.20
12688;DHT22;6408;59.388;17.798;2023-05-07T15:02:09;15.70;95.40
12688;DHT22;6408;59.388;17.798;2023-05-07T15:04:36;15.80;95.20
12688;DHT22;6408;59.388;17.798;2023-05-07T15:07:06;15.70;95.50
12688;DHT22;6408;59.388;17.798;2023-05-07T15:09:34;15.60;94.70
12688;DHT22;6408;59.388;17.798;2023-05-07T15:12:02;15.40;95.50
12688;DHT22;6408;59.388;17.798;2023-05-07T15:14:30;15.20;95.40
12688;DHT22;6408;59.388;17.798;2023-05-07T15:17:00;15.20;95.50
12688;DHT22;6408;59.388;17.798;2023-05-07T15:19:27;15.30;94.50
12688;DHT22;6408;59.388;17.798;2023-05-07T15:21:56;15.30;94.20
12688;DHT22;6408;59.388;17.798;2023-05-07T15:24:25;15.30;94.30
12688;DHT22;6408;59.388;17.798;2023-05-07T15:26:52;15.40;94.80
12688;DHT22;6408;59.388;17.798;2023-05-07T15:29:20;15.30;93.80
12688;DHT22;6408;59.388;17.798;2023-05-07T15:31:47;15.40;94.20
12688;DHT22;6408;59.388;17.798;2023-05-07T15:34:16;15.30;94.50
12688;DHT22;6408;59.388;17.798;2023-05-07T15:36:43;15.30;93.90
12688;DHT22;6408;59.388;17.798;2023-05-07T15:39:10;15.30;93.80
12688;DHT22;6408;59.388;17.798;2023-05-07T15:41:38;15.30;94.60
12688;DHT22;6408;59.388;17.798;2023-05-07T15:44:06;15.20;94.40
12688;DHT22;6408;59.388;17.798;2023-05-07T15:46:33;15.10;94.60
12688;DHT22;6408;59.388;17.798;2023-05-07T15:49:02;15.00;94.10